sensor_id;sensor_type;location;lat;lon;timestamp;temperature;humidity
53294;DHT22;39181;53.440;5.644;2023-03-01T00:01:25;0.70;99.90
53294;DHT22;39181;53.440;5.644;2023-03-01T00:03:51;0.80;99.90
53294;DHT22;39181;53.440;5.644;2023-03-01T00:06:18;0.80;99.90
53294;DHT22;39181;53.440;5.644;2023-03-01T00:08:43;0.90;99.90
53294;DHT22;39181;53.440;5.644;2023-03-01T00:11:16;0.90;99.90
53294;DHT22;39181;53.440;5.644;2023-03-01T00:13:43;1.00;99.90
53294;DHT22;39181;53.440;5.644;2023-03-01T00:16:14;1.00;99.90
53294;DHT22;39181;53.440;5.644;2023-03-01T00:18:40;1.10;99.90
53294;DHT22;39181;53.440;5.644;2023-03-01T00:21:06;1.10;99.90
53294;DHT22;39181;53.440;5.644;2023-03-01T00:23:34;1.20;99.90
53294;DHT22;39181;53.440;5.644;2023-03-01T00:26:00;1.20;99.90
53294;DHT22;39181;53.440;5.644;2023-03-01T00:28:26;1.30;99.90
53294;DHT22;39181;53.440;5.644;2023-03-01T00:30:51;1.30;99.90
53294;DHT22;39181;53.440;5.644;2023-03-01T00:33:17;1.40;99.90
53294;DHT22;39181;53.440;5.644;2023-03-01T00:35:43;1.50;99.90
53294;DHT22;39181;53.440;5.644;2023-03-01T00:38:09;1.50;99.90
53294;DHT22;39181;53.440;5.644;2023-03-01T00:40:35;1.50;99.90
53294;DHT22;39181;53.440;5.644;2023-03-01T00:43:02;1.50;99.90
53294;DHT22;39181;53.440;5.644;2023-03-01T00:45:28;1.60;99.90
53294;DHT22;39181;53.440;5.644;2023-03-01T00:47:56;1.70;99.90
53294;DHT22;39181;53.440;5.644;2023-03-01T00:50:21;1.70;99.90
53294;DHT22;39181;53.440;5.644;2023-03-01T00:52:50;1.80;99.90
53294;DHT22;39181;53.440;5.644;2023-03-01T00:55:17;1.80;99.90
53294;DHT22;39181;53.440;5.644;2023-03-01T00:57:42;1.90;99.90
53294;DHT22;39181;53.440;5.644;2023-03-01T01:00:08;1.90;99.90
53294;DHT22;39181;53.440;5.644;2023-03-01T01:02:35;1.90;99.90
53294;DHT22;39181;53.440;5.644;2023-03-01T01:05:00;2.00;99.90
53294;DHT22;39181;53.440;5.644;2023-03-01T01:07:26;2.00;99.90
53294;DHT22;39181;53.440;5.644;2023-03-01T01:09:52;2.10;99.90
53294;DHT22;39181;53.440;5.644;2023-03-01T01:12:18;2.10;99.90
53294;DHT22;39181;53.440;5.644;2023-03-01T01:14:43;2.20;99.90
53294;DHT22;39181;53.440;5.644;2023-03-01T01:17:09;2.20;99.90
53294;DHT22;39181;53.440;5.644;2023-03-01T01:19:35;2.30;99.90
53294;DHT22;39181;53.440;5.644;2023-03-01T01:22:00;2.30;99.90
53294;DHT22;39181;53.440;5.644;2023-03-01T01:24:26;2.30;99.90
53294;DHT22;39181;53.440;5.644;2023-03-01T01:26:52;2.30;99.90
53294;DHT22;39181;53.440;5.644;2023-03-01T01:29:17;2.40;99.90
53294;DHT22;39181;53.440;5.644;2023-03-01T01:31:44;2.40;99.90
53294;DHT22;39181;53.440;5.644;2023-03-01T01:34:17;2.50;99.90
53294;DHT22;39181;53.440;5.644;2023-03-01T01:36:44;2.50;99.90
53294;DHT22;39181;53.440;5.644;2023-03-01T01:39:12;2.50;99.90
53294;DHT22;39181;53.440;5.644;2023-03-01T01:41:39;2.60;99.90
53294;DHT22;39181;53.440;5.644;2023-03-01T01:44:25;2.60;99.90
53294;DHT22;39181;53.440;5.644;2023-03-01T01:47:14;2.60;99.90
53294;DHT22;39181;53.440;5.644;2023-03-01T01:49:48;2.60;99.90
53294;DHT22;39181;53.440;5.644;2023-03-01T01:57:33;2.70;99.90
53294;DHT22;39181;53.440;5.644;2023-03-01T02:00:03;2.80;99.90
53294;DHT22;39181;53.440;5.644;2023-03-01T02:02:29;2.80;99.90
53294;DHT22;39181;53.440;5.644;2023-03-01T02:05:03;2.80;99.90
53294;DHT22;39181;53.440;5.644;2023-03-01T02:07:38;2.90;99.90
53294;DHT22;39181;53.440;5.644;2023-03-01T02:10:04;2.90;99.90
53294;DHT22;39181;53.440;5.644;2023-03-01T02:12:30;2.90;99.90
53294;DHT22;39181;53.440;5.644;2023-03-01T02:14:56;2.90;99.90
53294;DHT22;39181;53.440;5.644;2023-03-01T02:17:21;2.90;99.90
53294;DHT22;39181;53.440;5.644;2023-03-01T02:19:51;2.90;99.90
53294;DHT22;39181;53.440;5.644;2023-03-01T02:22:25;3.00;99.90
53294;DHT22;39181;53.440;5.644;2023-03-01T02:30:19;3.10;99.90
53294;DHT22;39181;53.440;5.644;2023-03-01T02:32:45;3.30;99.90
53294;DHT22;39181;53.440;5.644;2023-03-01T02:35:14;3.80;99.90
53294;DHT22;39181;53.440;5.644;2023-03-01T02:37:42;3.10;99.90
53294;DHT22;39181;53.440;5.644;2023-03-01T02:40:12;3.10;99.90
53294;DHT22;39181;53.440;5.644;2023-03-01T02:42:49;3.10;99.90
53294;DHT22;39181;53.440;5.644;2023-03-01T02:45:16;3.10;99.90
53294;DHT22;39181;53.440;5.644;2023-03-01T02:47:42;3.20;99.90
53294;DHT22;39181;53.440;5.644;2023-03-01T02:55:26;3.30;99.90
53294;DHT22;39181;53.440;5.644;2023-03-01T02:57:53;3.30;99.90
53294;DHT22;39181;53.440;5.644;2023-03-01T03:00:28;3.30;99.90
53294;DHT22;39181;53.440;5.644;2023-03-01T03:02:55;3.30;99.90
53294;DHT22;39181;53.440;5.644;2023-03-01T03:05:25;3.30;99.90
53294;DHT22;39181;53.440;5.644;2023-03-01T03:07:51;3.40;99.90
53294;DHT22;39181;53.440;5.644;2023-03-01T03:10:25;3.40;99.90
53294;DHT22;39181;53.440;5.644;2023-03-01T03:12:53;3.40;99.90
53294;DHT22;39181;53.440;5.644;2023-03-01T03:15:20;3.50;99.90
53294;DHT22;39181;53.440;5.644;2023-03-01T03:17:46;3.50;99.90
53294;DHT22;39181;53.440;5.644;2023-03-01T03:20:14;3.50;99.90
53294;DHT22;39181;53.440;5.644;2023-03-01T03:22:45;3.50;99.90
53294;DHT22;39181;53.440;5.644;2023-03-01T03:25:11;3.60;99.90
53294;DHT22;39181;53.440;5.644;2023-03-01T03:27:38;3.60;99.90
53294;DHT22;39181;53.440;5.644;2023-03-01T03:30:06;3.60;99.90
53294;DHT22;39181;53.440;5.644;2023-03-01T03:32:36;3.60;99.90
53294;DHT22;39181;53.440;5.644;2023-03-01T03:35:03;3.60;99.90
53294;DHT22;39181;53.440;5.644;2023-03-01T03:37:38;3.60;99.90
53294;DHT22;39181;53.440;5.644;2023-03-01T03:40:22;3.70;99.90
53294;DHT22;39181;53.440;5.644;2023-03-01T03:42:48;3.70;99.90
53294;DHT22;39181;53.440;5.644;2023-03-01T03:45:15;3.70;99.90
53294;DHT22;39181;53.440;5.644;2023-03-01T03:47:41;3.70;99.90
53294;DHT22;39181;53.440;5.644;2023-03-01T03:50:08;3.70;99.90
53294;DHT22;39181;53.440;5.644;2023-03-01T03:52:34;3.70;99.90
53294;DHT22;39181;53.440;5.644;2023-03-01T03:54:59;3.70;99.90
53294;DHT22;39181;53.440;5.644;2023-03-01T03:57:25;3.70;99.90
53294;DHT22;39181;53.440;5.644;2023-03-01T03:59:50;3.70;99.90
53294;DHT22;39181;53.440;5.644;2023-03-01T04:02:16;3.80;99.90
53294;DHT22;39181;53.440;5.644;2023-03-01T04:04:48;3.80;99.90
53294;DHT22;39181;53.440;5.644;2023-03-01T04:07:15;3.80;99.90
53294;DHT22;39181;53.440;5.644;2023-03-01T04:09:42;3.80;99.90
53294;DHT22;39181;53.440;5.644;2023-03-01T04:12:08;3.80;99.90
53294;DHT22;39181;53.440;5.644;2023-03-01T04:14:34;3.80;99.90
53294;DHT22;39181;53.440;5.644;2023-03-01T04:17:00;3.80;99.90
53294;DHT22;39181;53.440;5.644;2023-03-01T04:19:26;3.80;99.90
53294;DHT22;39181;53.440;5.644;2023-03-01T04:21:52;3.80;99.90
53294;DHT22;39181;53.440;5.644;2023-03-01T04:24:18;3.80;99.90
53294;DHT22;39181;53.440;5.644;2023-03-01T04:26:44;3.90;99.90
53294;DHT22;39181;53.440;5.644;2023-03-01T04:29:10;3.90;99.90
53294;DHT22;39181;53.440;5.644;2023-03-01T04:31:36;3.90;99.90
53294;DHT22;39181;53.440;5.644;2023-03-01T04:34:01;3.90;99.90
53294;DHT22;39181;53.440;5.644;2023-03-01T04:36:28;3.90;99.90
53294;DHT22;39181;53.440;5.644;2023-03-01T04:38:55;3.90;99.90
53294;DHT22;39181;53.440;5.644;2023-03-01T04:41:23;3.90;99.90
53294;DHT22;39181;53.440;5.644;2023-03-01T04:43:49;4.00;99.90
53294;DHT22;39181;53.440;5.644;2023-03-01T04:46:17;3.90;99.90
53294;DHT22;39181;53.440;5.644;2023-03-01T04:48:45;3.90;99.90
53294;DHT22;39181;53.440;5.644;2023-03-01T04:51:12;3.90;99.90
53294;DHT22;39181;53.440;5.644;2023-03-01T04:53:42;3.90;99.90
53294;DHT22;39181;53.440;5.644;2023-03-01T04:56:08;3.90;99.90
53294;DHT22;39181;53.440;5.644;2023-03-01T04:58:33;3.90;99.90
53294;DHT22;39181;53.440;5.644;2023-03-01T05:00:59;3.90;99.90
53294;DHT22;39181;53.440;5.644;2023-03-01T05:03:25;3.90;99.90
53294;DHT22;39181;53.440;5.644;2023-03-01T05:05:52;3.90;99.90
53294;DHT22;39181;53.440;5.644;2023-03-01T05:08:18;3.90;99.90
53294;DHT22;39181;53.440;5.644;2023-03-01T05:10:53;3.90;99.90
53294;DHT22;39181;53.440;5.644;2023-03-01T05:13:20;3.90;99.90
53294;DHT22;39181;53.440;5.644;2023-03-01T05:16:00;3.80;99.90
53294;DHT22;39181;53.440;5.644;2023-03-01T05:18:27;3.90;99.90
53294;DHT22;39181;53.440;5.644;2023-03-01T05:21:03;3.90;99.90
53294;DHT22;39181;53.440;5.644;2023-03-01T05:23:30;3.80;99.90
53294;DHT22;39181;53.440;5.644;2023-03-01T05:26:00;3.80;99.90
53294;DHT22;39181;53.440;5.644;2023-03-01T05:28:27;3.80;99.90
53294;DHT22;39181;53.440;5.644;2023-03-01T05:30:54;3.80;99.90
53294;DHT22;39181;53.440;5.644;2023-03-01T05:33:20;3.80;99.90
53294;DHT22;39181;53.440;5.644;2023-03-01T05:35:48;3.80;99.90
53294;DHT22;39181;53.440;5.644;2023-03-01T05:38:14;3.80;99.90
53294;DHT22;39181;53.440;5.644;2023-03-01T05:40:45;4.10;99.90
53294;DHT22;39181;53.440;5.644;2023-03-01T05:43:12;3.70;99.90
53294;DHT22;39181;53.440;5.644;2023-03-01T05:45:39;3.70;99.90
53294;DHT22;39181;53.440;5.644;2023-03-01T05:48:06;3.60;99.90
53294;DHT22;39181;53.440;5.644;2023-03-01T05:50:35;3.60;99.90
53294;DHT22;39181;53.440;5.644;2023-03-01T05:53:15;3.60;99.90
53294;DHT22;39181;53.440;5.644;2023-03-01T05:55:42;3.60;99.90
53294;DHT22;39181;53.440;5.644;2023-03-01T05:58:11;3.60;99.90
53294;DHT22;39181;53.440;5.644;2023-03-01T06:00:39;3.60;99.90
53294;DHT22;39181;53.440;5.644;2023-03-01T06:03:05;3.60;99.90
53294;DHT22;39181;53.440;5.644;2023-03-01T06:05:30;3.60;99.90
53294;DHT22;39181;53.440;5.644;2023-03-01T06:07:59;3.60;99.90
53294;DHT22;39181;53.440;5.644;2023-03-01T06:10:25;3.60;99.90
53294;DHT22;39181;53.440;5.644;2023-03-01T06:12:51;3.60;99.90
53294;DHT22;39181;53.440;5.644;2023-03-01T06:15:16;3.60;99.90
53294;DHT22;39181;53.440;5.644;2023-03-01T06:17:43;3.60;99.90
53294;DHT22;39181;53.440;5.644;2023-03-01T06:20:21;3.60;99.90
53294;DHT22;39181;53.440;5.644;2023-03-01T06:22:47;3.60;99.90
53294;DHT22;39181;53.440;5.644;2023-03-01T06:25:17;3.50;99.90
53294;DHT22;39181;53.440;5.644;2023-03-01T06:27:43;3.60;99.90
53294;DHT22;39181;53.440;5.644;2023-03-01T06:30:10;3.50;99.90
53294;DHT22;39181;53.440;5.644;2023-03-01T06:32:37;3.50;99.90
53294;DHT22;39181;53.440;5.644;2023-03-01T06:35:04;3.50;99.90
53294;DHT22;39181;53.440;5.644;2023-03-01T06:37:30;3.50;99.90
53294;DHT22;39181;53.440;5.644;2023-03-01T06:39:55;3.50;99.90
53294;DHT22;39181;53.440;5.644;2023-03-01T06:42:21;3.50;99.90
53294;DHT22;39181;53.440;5.644;2023-03-01T06:44:46;3.50;99.90
53294;DHT22;39181;53.440;5.644;2023-03-01T06:47:12;3.50;99.90
53294;DHT22;39181;53.440;5.644;2023-03-01T06:49:38;3.50;99.90
53294;DHT22;39181;53.440;5.644;2023-03-01T06:52:03;3.50;99.90
53294;DHT22;39181;53.440;5.644;2023-03-01T06:54:29;3.50;99.90
53294;DHT22;39181;53.440;5.644;2023-03-01T06:56:54;3.50;99.90
53294;DHT22;39181;53.440;5.644;2023-03-01T06:59:20;3.50;99.90
53294;DHT22;39181;53.440;5.644;2023-03-01T07:01:46;3.50;99.90
53294;DHT22;39181;53.440;5.644;2023-03-01T07:04:13;3.50;99.90
53294;DHT22;39181;53.440;5.644;2023-03-01T07:06:39;3.50;99.90
53294;DHT22;39181;53.440;5.644;2023-03-01T07:09:04;3.40;99.90
53294;DHT22;39181;53.440;5.644;2023-03-01T07:11:30;3.40;99.90
53294;DHT22;39181;53.440;5.644;2023-03-01T07:13:55;3.40;99.90
53294;DHT22;39181;53.440;5.644;2023-03-01T07:16:21;3.40;99.90
53294;DHT22;39181;53.440;5.644;2023-03-01T07:18:47;3.40;99.90
53294;DHT22;39181;53.440;5.644;2023-03-01T07:21:14;3.50;99.90
53294;DHT22;39181;53.440;5.644;2023-03-01T07:23:40;3.50;99.90
53294;DHT22;39181;53.440;5.644;2023-03-01T07:26:05;3.50;99.90
53294;DHT22;39181;53.440;5.644;2023-03-01T07:28:31;3.50;99.90
53294;DHT22;39181;53.440;5.644;2023-03-01T07:31:02;3.50;99.90
53294;DHT22;39181;53.440;5.644;2023-03-01T07:33:28;3.60;99.90
53294;DHT22;39181;53.440;5.644;2023-03-01T07:35:58;3.60;99.90
53294;DHT22;39181;53.440;5.644;2023-03-01T07:38:24;3.70;99.90
53294;DHT22;39181;53.440;5.644;2023-03-01T07:40:50;3.70;99.90
53294;DHT22;39181;53.440;5.644;2023-03-01T07:43:15;3.70;99.90
53294;DHT22;39181;53.440;5.644;2023-03-01T07:45:41;3.80;99.90
53294;DHT22;39181;53.440;5.644;2023-03-01T07:48:06;3.80;99.90
53294;DHT22;39181;53.440;5.644;2023-03-01T07:50:32;3.90;99.90
53294;DHT22;39181;53.440;5.644;2023-03-01T07:52:57;4.00;99.90
53294;DHT22;39181;53.440;5.644;2023-03-01T07:55:23;4.10;99.90
53294;DHT22;39181;53.440;5.644;2023-03-01T07:57:49;4.20;99.90
53294;DHT22;39181;53.440;5.644;2023-03-01T08:00:14;4.30;99.90
53294;DHT22;39181;53.440;5.644;2023-03-01T08:02:40;4.50;99.90
53294;DHT22;39181;53.440;5.644;2023-03-01T08:05:08;4.50;99.90
53294;DHT22;39181;53.440;5.644;2023-03-01T08:07:34;4.60;99.90
53294;DHT22;39181;53.440;5.644;2023-03-01T08:09:59;4.70;99.90
53294;DHT22;39181;53.440;5.644;2023-03-01T08:12:25;4.70;99.90
53294;DHT22;39181;53.440;5.644;2023-03-01T08:14:52;4.80;99.90
53294;DHT22;39181;53.440;5.644;2023-03-01T08:17:18;5.00;99.90
53294;DHT22;39181;53.440;5.644;2023-03-01T08:19:44;5.10;99.90
53294;DHT22;39181;53.440;5.644;2023-03-01T08:22:10;5.30;99.90
53294;DHT22;39181;53.440;5.644;2023-03-01T08:24:36;5.30;99.90
53294;DHT22;39181;53.440;5.644;2023-03-01T08:27:01;5.40;99.90
53294;DHT22;39181;53.440;5.644;2023-03-01T08:29:30;5.40;99.90
53294;DHT22;39181;53.440;5.644;2023-03-01T08:31:56;5.60;99.90
53294;DHT22;39181;53.440;5.644;2023-03-01T08:34:22;5.70;99.90
53294;DHT22;39181;53.440;5.644;2023-03-01T08:36:48;5.90;99.90
53294;DHT22;39181;53.440;5.644;2023-03-01T08:39:16;6.00;99.90
53294;DHT22;39181;53.440;5.644;2023-03-01T08:41:42;6.10;99.90
53294;DHT22;39181;53.440;5.644;2023-03-01T08:44:10;6.20;99.90
53294;DHT22;39181;53.440;5.644;2023-03-01T08:46:40;6.20;99.90
53294;DHT22;39181;53.440;5.644;2023-03-01T08:49:13;6.20;99.90
53294;DHT22;39181;53.440;5.644;2023-03-01T08:51:39;6.20;99.90
53294;DHT22;39181;53.440;5.644;2023-03-01T08:54:06;6.20;99.90
53294;DHT22;39181;53.440;5.644;2023-03-01T08:56:32;6.20;99.90
53294;DHT22;39181;53.440;5.644;2023-03-01T08:58:58;6.10;99.90
53294;DHT22;39181;53.440;5.644;2023-03-01T09:01:24;6.10;99.90
53294;DHT22;39181;53.440;5.644;2023-03-01T09:03:50;6.20;99.90
53294;DHT22;39181;53.440;5.644;2023-03-01T09:06:15;6.30;99.90
53294;DHT22;39181;53.440;5.644;2023-03-01T09:08:44;6.60;99.90
53294;DHT22;39181;53.440;5.644;2023-03-01T09:11:12;6.80;99.90
53294;DHT22;39181;53.440;5.644;2023-03-01T09:13:38;6.90;99.90
53294;DHT22;39181;53.440;5.644;2023-03-01T09:16:06;6.90;99.90
53294;DHT22;39181;53.440;5.644;2023-03-01T09:18:32;7.00;99.90
53294;DHT22;39181;53.440;5.644;2023-03-01T09:21:06;7.10;99.90
53294;DHT22;39181;53.440;5.644;2023-03-01T09:23:37;7.20;99.90
53294;DHT22;39181;53.440;5.644;2023-03-01T09:26:05;7.20;99.90
53294;DHT22;39181;53.440;5.644;2023-03-01T09:28:31;7.20;99.90
53294;DHT22;39181;53.440;5.644;2023-03-01T09:31:01;7.20;99.90
53294;DHT22;39181;53.440;5.644;2023-03-01T09:33:28;7.20;99.90
53294;DHT22;39181;53.440;5.644;2023-03-01T09:36:01;7.30;99.90
53294;DHT22;39181;53.440;5.644;2023-03-01T09:38:28;7.30;99.90
53294;DHT22;39181;53.440;5.644;2023-03-01T09:40:53;7.40;99.90
53294;DHT22;39181;53.440;5.644;2023-03-01T09:45:53;7.20;99.90
53294;DHT22;39181;53.440;5.644;2023-03-01T09:48:23;7.10;99.90
53294;DHT22;39181;53.440;5.644;2023-03-01T09:50:51;7.20;99.90
53294;DHT22;39181;53.440;5.644;2023-03-01T09:53:31;7.20;99.90
53294;DHT22;39181;53.440;5.644;2023-03-01T09:58:53;7.10;99.90
53294;DHT22;39181;53.440;5.644;2023-03-01T10:04:37;7.20;99.90
53294;DHT22;39181;53.440;5.644;2023-03-01T10:09:38;7.30;99.90
53294;DHT22;39181;53.440;5.644;2023-03-01T10:12:12;7.30;99.90
53294;DHT22;39181;53.440;5.644;2023-03-01T10:15:00;7.40;99.90
53294;DHT22;39181;53.440;5.644;2023-03-01T10:17:35;7.40;99.90
53294;DHT22;39181;53.440;5.644;2023-03-01T10:20:18;7.50;99.90
53294;DHT22;39181;53.440;5.644;2023-03-01T10:22:44;7.60;99.90
53294;DHT22;39181;53.440;5.644;2023-03-01T10:25:17;7.60;99.90
53294;DHT22;39181;53.440;5.644;2023-03-01T10:27:54;7.60;99.90
53294;DHT22;39181;53.440;5.644;2023-03-01T10:30:41;7.70;99.90
53294;DHT22;39181;53.440;5.644;2023-03-01T10:33:24;7.70;99.90
53294;DHT22;39181;53.440;5.644;2023-03-01T10:35:50;7.70;99.90
53294;DHT22;39181;53.440;5.644;2023-03-01T10:38:17;7.70;99.90
53294;DHT22;39181;53.440;5.644;2023-03-01T10:41:04;7.70;99.90
53294;DHT22;39181;53.440;5.644;2023-03-01T10:43:49;7.80;99.90
53294;DHT22;39181;53.440;5.644;2023-03-01T10:46:27;7.80;99.90
53294;DHT22;39181;53.440;5.644;2023-03-01T10:49:15;8.00;99.90
53294;DHT22;39181;53.440;5.644;2023-03-01T10:51:45;8.10;99.90
53294;DHT22;39181;53.440;5.644;2023-03-01T10:54:22;8.30;99.90
53294;DHT22;39181;53.440;5.644;2023-03-01T10:56:59;8.30;99.90
53294;DHT22;39181;53.440;5.644;2023-03-01T10:59:28;8.40;99.90
53294;DHT22;39181;53.440;5.644;2023-03-01T11:04:35;8.50;99.90
53294;DHT22;39181;53.440;5.644;2023-03-01T11:07:02;8.50;99.90
53294;DHT22;39181;53.440;5.644;2023-03-01T11:09:31;8.60;99.90
53294;DHT22;39181;53.440;5.644;2023-03-01T11:12:05;8.50;99.90
53294;DHT22;39181;53.440;5.644;2023-03-01T11:14:36;8.50;99.90
53294;DHT22;39181;53.440;5.644;2023-03-01T11:17:12;8.50;99.90
53294;DHT22;39181;53.440;5.644;2023-03-01T11:19:40;8.60;99.90
53294;DHT22;39181;53.440;5.644;2023-03-01T11:22:12;8.50;99.90
53294;DHT22;39181;53.440;5.644;2023-03-01T11:24:47;8.70;99.90
53294;DHT22;39181;53.440;5.644;2023-03-01T11:27:25;8.70;99.90
53294;DHT22;39181;53.440;5.644;2023-03-01T11:32:26;8.70;99.90
53294;DHT22;39181;53.440;5.644;2023-03-01T11:34:58;8.70;99.90
53294;DHT22;39181;53.440;5.644;2023-03-01T11:37:41;8.60;99.90
53294;DHT22;39181;53.440;5.644;2023-03-01T11:40:16;8.70;99.90
53294;DHT22;39181;53.440;5.644;2023-03-01T11:45:22;8.80;99.90
53294;DHT22;39181;53.440;5.644;2023-03-01T11:48:36;9.00;99.90
53294;DHT22;39181;53.440;5.644;2023-03-01T11:50:52;9.00;99.90
53294;DHT22;39181;53.440;5.644;2023-03-01T11:53:50;9.00;99.90
53294;DHT22;39181;53.440;5.644;2023-03-01T11:56:43;9.30;99.90
53294;DHT22;39181;53.440;5.644;2023-03-01T12:00:19;9.50;99.90
53294;DHT22;39181;53.440;5.644;2023-03-01T12:02:52;9.70;99.90
53294;DHT22;39181;53.440;5.644;2023-03-01T12:05:54;9.90;99.90
53294;DHT22;39181;53.440;5.644;2023-03-01T12:11:39;10.00;99.90
53294;DHT22;39181;53.440;5.644;2023-03-01T12:14:33;10.00;99.90
53294;DHT22;39181;53.440;5.644;2023-03-01T12:17:16;10.20;99.90
53294;DHT22;39181;53.440;5.644;2023-03-01T12:25:21;10.10;99.90
53294;DHT22;39181;53.440;5.644;2023-03-01T12:31:05;9.80;99.90
53294;DHT22;39181;53.440;5.644;2023-03-01T12:49:47;9.30;99.90
53294;DHT22;39181;53.440;5.644;2023-03-01T12:55:08;9.00;99.90
53294;DHT22;39181;53.440;5.644;2023-03-01T12:57:48;8.90;99.90
53294;DHT22;39181;53.440;5.644;2023-03-01T13:03:10;8.80;99.90
53294;DHT22;39181;53.440;5.644;2023-03-01T13:05:51;8.70;99.90
53294;DHT22;39181;53.440;5.644;2023-03-01T13:08:29;8.80;99.90
53294;DHT22;39181;53.440;5.644;2023-03-01T13:11:05;8.60;99.90
53294;DHT22;39181;53.440;5.644;2023-03-01T13:13:36;8.50;99.90
53294;DHT22;39181;53.440;5.644;2023-03-01T13:16:21;8.50;99.90
53294;DHT22;39181;53.440;5.644;2023-03-01T13:18:48;8.30;99.90
53294;DHT22;39181;53.440;5.644;2023-03-01T13:21:30;8.30;99.90
53294;DHT22;39181;53.440;5.644;2023-03-01T13:23:56;8.20;99.90
53294;DHT22;39181;53.440;5.644;2023-03-01T13:26:21;8.20;99.90
53294;DHT22;39181;53.440;5.644;2023-03-01T13:28:49;8.20;99.90
53294;DHT22;39181;53.440;5.644;2023-03-01T13:33:48;8.20;99.90
53294;DHT22;39181;53.440;5.644;2023-03-01T13:44:25;8.10;99.90
53294;DHT22;39181;53.440;5.644;2023-03-01T13:47:03;8.00;99.90
53294;DHT22;39181;53.440;5.644;2023-03-01T13:49:43;8.10;99.90
53294;DHT22;39181;53.440;5.644;2023-03-01T13:52:43;7.80;99.90
53294;DHT22;39181;53.440;5.644;2023-03-01T13:55:38;7.90;99.90
53294;DHT22;39181;53.440;5.644;2023-03-01T13:58:27;7.80;99.90
53294;DHT22;39181;53.440;5.644;2023-03-01T14:01:00;8.00;99.90
53294;DHT22;39181;53.440;5.644;2023-03-01T14:03:26;7.80;99.90
53294;DHT22;39181;53.440;5.644;2023-03-01T14:08:33;7.90;99.90
53294;DHT22;39181;53.440;5.644;2023-03-01T14:14:14;7.80;99.90
53294;DHT22;39181;53.440;5.644;2023-03-01T14:19:33;7.60;99.90
53294;DHT22;39181;53.440;5.644;2023-03-01T14:24:31;7.40;99.90
53294;DHT22;39181;53.440;5.644;2023-03-01T14:27:01;7.30;99.90
53294;DHT22;39181;53.440;5.644;2023-03-01T14:29:37;7.20;99.90
53294;DHT22;39181;53.440;5.644;2023-03-01T14:32:20;7.30;99.90
53294;DHT22;39181;53.440;5.644;2023-03-01T14:34:48;7.20;99.90
53294;DHT22;39181;53.440;5.644;2023-03-01T14:37:34;7.10;99.90
53294;DHT22;39181;53.440;5.644;2023-03-01T14:40:02;6.90;99.90
53294;DHT22;39181;53.440;5.644;2023-03-01T14:42:31;6.90;99.90
53294;DHT22;39181;53.440;5.644;2023-03-01T14:45:00;6.90;99.90
53294;DHT22;39181;53.440;5.644;2023-03-01T14:47:34;6.90;99.90
53294;DHT22;39181;53.440;5.644;2023-03-01T14:50:15;6.80;99.90
53294;DHT22;39181;53.440;5.644;2023-03-01T14:52:45;6.80;99.90
53294;DHT22;39181;53.440;5.644;2023-03-01T14:55:20;6.60;99.90
53294;DHT22;39181;53.440;5.644;2023-03-01T14:57:50;6.50;99.90
53294;DHT22;39181;53.440;5.644;2023-03-01T15:00:28;6.50;99.90
53294;DHT22;39181;53.440;5.644;2023-03-01T15:02:56;6.60;99.90
53294;DHT22;39181;53.440;5.644;2023-03-01T15:05:30;6.50;99.90
53294;DHT22;39181;53.440;5.644;2023-03-01T15:07:58;6.60;99.90
53294;DHT22;39181;53.440;5.644;2023-03-01T15:10:29;6.60;99.90
53294;DHT22;39181;53.440;5.644;2023-03-01T15:12:55;6.50;99.90
53294;DHT22;39181;53.440;5.644;2023-03-01T15:15:43;6.50;99.90
53294;DHT22;39181;53.440;5.644;2023-03-01T15:18:28;6.50;99.90
53294;DHT22;39181;53.440;5.644;2023-03-01T15:20:55;6.30;99.90
53294;DHT22;39181;53.440;5.644;2023-03-01T15:23:30;6.30;99.90
53294;DHT22;39181;53.440;5.644;2023-03-01T15:25:57;6.30;99.90
53294;DHT22;39181;53.440;5.644;2023-03-01T15:28:29;6.30;99.90
53294;DHT22;39181;53.440;5.644;2023-03-01T15:31:02;6.30;99.90
53294;DHT22;39181;53.440;5.644;2023-03-01T15:33:31;6.30;99.90
53294;DHT22;39181;53.440;5.644;2023-03-01T15:35:59;6.30;99.90
53294;DHT22;39181;53.440;5.644;2023-03-01T15:38:32;6.30;99.90
53294;DHT22;39181;53.440;5.644;2023-03-01T15:41:01;6.30;99.90
53294;DHT22;39181;53.440;5.644;2023-03-01T15:43:57;6.20;99.90
53294;DHT22;39181;53.440;5.644;2023-03-01T15:46:31;6.10;99.90
53294;DHT22;39181;53.440;5.644;2023-03-01T15:49:02;6.10;99.90
53294;DHT22;39181;53.440;5.644;2023-03-01T15:51:36;6.10;99.90
53294;DHT22;39181;53.440;5.644;2023-03-01T15:54:12;6.10;99.90
53294;DHT22;39181;53.440;5.644;2023-03-01T15:56:39;6.00;99.90
53294;DHT22;39181;53.440;5.644;2023-03-01T15:59:05;6.00;99.90
53294;DHT22;39181;53.440;5.644;2023-03-01T16:01:32;6.00;99.90
53294;DHT22;39181;53.440;5.644;2023-03-01T16:03:59;5.90;99.90
53294;DHT22;39181;53.440;5.644;2023-03-01T16:06:25;5.80;99.90
53294;DHT22;39181;53.440;5.644;2023-03-01T16:08:50;5.80;99.90
53294;DHT22;39181;53.440;5.644;2023-03-01T16:11:18;5.80;99.90
53294;DHT22;39181;53.440;5.644;2023-03-01T16:13:44;5.80;99.90
53294;DHT22;39181;53.440;5.644;2023-03-01T16:16:11;5.60;99.90
53294;DHT22;39181;53.440;5.644;2023-03-01T16:18:40;5.60;99.90
53294;DHT22;39181;53.440;5.644;2023-03-01T16:21:06;5.60;99.90
53294;DHT22;39181;53.440;5.644;2023-03-01T16:23:32;5.50;99.90
53294;DHT22;39181;53.440;5.644;2023-03-01T16:26:01;5.50;99.90
53294;DHT22;39181;53.440;5.644;2023-03-01T16:28:26;5.50;99.90
53294;DHT22;39181;53.440;5.644;2023-03-01T16:30:52;5.50;99.90
53294;DHT22;39181;53.440;5.644;2023-03-01T16:33:18;5.50;99.90
53294;DHT22;39181;53.440;5.644;2023-03-01T16:35:43;5.40;99.90
53294;DHT22;39181;53.440;5.644;2023-03-01T16:38:10;5.30;99.90
53294;DHT22;39181;53.440;5.644;2023-03-01T16:40:35;5.40;99.90
53294;DHT22;39181;53.440;5.644;2023-03-01T16:43:01;5.40;99.90
53294;DHT22;39181;53.440;5.644;2023-03-01T16:45:32;5.20;99.90
53294;DHT22;39181;53.440;5.644;2023-03-01T16:47:58;5.20;99.90
53294;DHT22;39181;53.440;5.644;2023-03-01T16:50:24;5.10;99.90
53294;DHT22;39181;53.440;5.644;2023-03-01T16:52:50;5.10;99.90
53294;DHT22;39181;53.440;5.644;2023-03-01T16:55:15;5.00;99.90
53294;DHT22;39181;53.440;5.644;2023-03-01T16:57:41;5.00;99.90
53294;DHT22;39181;53.440;5.644;2023-03-01T17:00:08;4.90;99.90
53294;DHT22;39181;53.440;5.644;2023-03-01T17:02:38;4.80;99.90
53294;DHT22;39181;53.440;5.644;2023-03-01T17:05:04;4.80;99.90
53294;DHT22;39181;53.440;5.644;2023-03-01T17:07:31;4.80;99.90
53294;DHT22;39181;53.440;5.644;2023-03-01T17:10:01;4.80;99.90
53294;DHT22;39181;53.440;5.644;2023-03-01T17:12:27;4.70;99.90
53294;DHT22;39181;53.440;5.644;2023-03-01T17:14:53;4.70;99.90
53294;DHT22;39181;53.440;5.644;2023-03-01T17:17:18;4.70;99.90
53294;DHT22;39181;53.440;5.644;2023-03-01T17:19:44;4.60;99.90
53294;DHT22;39181;53.440;5.644;2023-03-01T17:22:11;4.60;99.90
53294;DHT22;39181;53.440;5.644;2023-03-01T17:24:39;4.60;99.90
53294;DHT22;39181;53.440;5.644;2023-03-01T17:27:05;4.50;99.90
53294;DHT22;39181;53.440;5.644;2023-03-01T17:29:32;4.60;99.90
53294;DHT22;39181;53.440;5.644;2023-03-01T17:31:57;4.60;99.90